Time;durP1;ratioP1;P1;durP2;ratioP2;P2;SDS_P1;SDS_P2;PMS_P1;PMS_P2;Temp;Humidity;BMP_temperature;BMP_pressure;BME280_temperature;BME280_humidity;BME280_pressure;Samples;Min_cycle;Max_cycle;Signal;HPM_P1;HPM_P2
2023/01/05 00:01:25;;;;;;;71.25;36.10;;;;;;;5.49;97.09;94185.50;4962011;28;20042;-61
2023/01/05 00:03:51;;;;;;;66.60;36.45;;;;;;;5.53;96.17;94186.00;4969643;28;20034;-61
2023/01/05 00:06:17;;;;;;;77.30;39.63;;;;;;;5.51;96.29;94185.00;4963458;28;20043;-61
2023/01/05 00:08:43;;;;;;;63.55;34.03;;;;;;;5.53;96.36;94177.78;4962281;28;20027;-61
2023/01/05 00:22:31;;;;;;;67.07;33.53;;;;;;;5.62;95.98;94179.50;4959715;28;20502;-61
2023/01/05 00:25:02;;;;;;;63.17;33.78;;;;;;;5.62;95.55;94174.03;4956054;28;20041;-62
2023/01/05 00:27:28;;;;;;;65.88;34.63;;;;;;;5.48;96.03;94178.50;4951435;28;20275;-62
2023/01/05 00:29:53;;;;;;;57.78;32.20;;;;;;;5.50;95.75;94178.03;4959177;28;20432;-62
2023/01/05 00:32:19;;;;;;;69.35;33.13;;;;;;;5.33;95.45;94154.13;4963146;28;20489;-61
2023/01/05 00:34:45;;;;;;;60.65;33.47;;;;;;;5.50;96.09;94170.53;4966777;28;20030;-62
2023/01/05 00:37:10;;;;;;;60.20;32.33;;;;;;;5.31;96.86;94175.03;4965502;28;20633;-61
2023/01/05 00:39:36;;;;;;;58.90;30.95;;;;;;;5.51;95.76;94176.78;4967781;28;20569;-61
2023/01/05 00:42:01;;;;;;;57.30;30.83;;;;;;;5.48;95.63;94170.31;4970908;28;20037;-62
2023/01/05 00:44:27;;;;;;;62.10;31.33;;;;;;;5.31;96.79;94164.06;4961721;28;20030;-61
2023/01/05 00:46:53;;;;;;;61.00;30.08;;;;;;;5.37;96.49;94160.09;4971965;28;20027;-61
2023/01/05 00:49:18;;;;;;;60.08;30.10;;;;;;;5.36;96.50;94174.28;4966034;28;20026;-61
2023/01/05 00:51:43;;;;;;;60.90;29.70;;;;;;;5.28;97.16;94168.56;4972150;28;20030;-61
2023/01/05 00:54:09;;;;;;;63.78;36.58;;;;;;;5.33;96.96;94167.81;4964888;28;20034;-61
2023/01/05 00:56:34;;;;;;;71.28;31.63;;;;;;;5.28;97.39;94165.09;4965735;28;20038;-62
2023/01/05 00:59:00;;;;;;;63.50;32.45;;;;;;;5.13;98.36;94156.38;4971810;28;20030;-61
2023/01/05 01:01:25;;;;;;;63.53;32.78;;;;;;;5.16;98.75;94158.09;4967061;28;20035;-61
2023/01/05 01:03:51;;;;;;;58.15;29.33;;;;;;;5.01;100.00;94157.56;4978659;28;20019;-61
2023/01/05 01:06:16;;;;;;;62.67;28.55;;;;;;;5.21;99.46;94163.59;4968445;28;20049;-61
2023/01/05 01:08:42;;;;;;;59.05;30.35;;;;;;;5.28;98.30;94145.91;4974651;28;20555;-61
2023/01/05 01:11:08;;;;;;;59.53;30.40;;;;;;;5.33;97.51;94159.59;4961041;28;20751;-61
2023/01/05 01:13:34;;;;;;;52.55;27.85;;;;;;;5.44;96.85;94152.63;4978921;28;20035;-60
2023/01/05 01:16:11;;;;;;;55.42;29.23;;;;;;;5.31;96.88;94148.41;4969188;28;20041;-61
2023/01/05 01:18:37;;;;;;;57.95;27.25;;;;;;;5.34;97.26;94143.94;4970121;28;20031;-60
2023/01/05 01:21:03;;;;;;;56.78;29.05;;;;;;;5.35;96.98;94127.00;4968758;28;20065;-60
2023/01/05 01:23:28;;;;;;;48.33;25.92;;;;;;;5.48;96.05;94134.69;4967201;28;20018;-61
2023/01/05 01:25:55;;;;;;;55.33;27.30;;;;;;;5.46;96.03;94131.72;4969765;28;20410;-61
2023/01/05 01:28:22;;;;;;;48.70;25.02;;;;;;;5.52;95.63;94127.00;4971623;28;20061;-61
2023/01/05 01:30:47;;;;;;;46.13;24.65;;;;;;;5.50;95.35;94123.25;4962531;28;20062;-60
2023/01/05 01:33:12;;;;;;;50.00;26.00;;;;;;;5.45;95.33;94122.03;4965907;28;20491;-60
2023/01/05 01:35:38;;;;;;;47.83;24.55;;;;;;;5.46;95.67;94120.75;4980070;28;20030;-61
2023/01/05 01:38:03;;;;;;;48.15;25.25;;;;;;;5.43;95.54;94121.78;4964541;28;20438;-60
2023/01/05 01:40:29;;;;;;;48.78;25.15;;;;;;;5.39;95.68;94116.53;4960654;28;20497;-61
2023/01/05 01:42:54;;;;;;;45.88;24.20;;;;;;;5.55;95.78;94114.28;4968243;28;20765;-61
2023/01/05 01:45:24;;;;;;;56.13;26.98;;;;;;;5.39;95.66;94110.34;4974230;28;20026;-60
2023/01/05 01:47:57;;;;;;;50.67;24.95;;;;;;;5.28;96.67;94107.59;4971380;28;20481;-61
2023/01/05 01:50:31;;;;;;;53.10;25.67;;;;;;;5.22;97.15;94102.09;4970777;28;20110;-61
2023/01/05 01:53:03;;;;;;;48.42;25.77;;;;;;;5.08;98.60;94116.78;4962504;28;20075;-61
2023/01/05 01:55:29;;;;;;;68.85;30.33;;;;;;;5.03;99.72;94101.13;4976894;28;20038;-61
2023/01/05 01:57:54;;;;;;;61.90;27.38;;;;;;;5.26;98.47;94107.34;4964695;28;20455;-61
2023/01/05 02:00:20;;;;;;;52.17;26.98;;;;;;;5.15;98.18;94093.66;4970809;28;20030;-60
2023/01/05 02:02:48;;;;;;;60.00;28.23;;;;;;;5.04;99.70;94099.13;4970388;28;20089;-61
2023/01/05 02:05:15;;;;;;;60.95;29.23;;;;;;;4.97;100.00;94089.41;4965196;28;20030;-61
2023/01/05 02:07:44;;;;;;;58.70;28.48;;;;;;;5.11;100.00;94093.16;4967092;28;20047;-61
2023/01/05 02:10:10;;;;;;;58.95;30.48;;;;;;;5.13;99.07;94087.94;4981841;28;20815;-61
2023/01/05 02:12:52;;;;;;;67.07;30.95;;;;;;;5.14;98.97;94078.47;4967002;28;20049;-60
2023/01/05 02:15:21;;;;;;;59.22;30.27;;;;;;;5.13;98.74;94077.00;4985300;28;20037;-61
2023/01/05 02:17:56;;;;;;;67.03;32.65;;;;;;;5.21;98.75;94077.97;4977418;28;20800;-61
2023/01/05 02:20:36;;;;;;;69.18;31.75;;;;;;;5.31;98.18;94066.25;4972432;28;20587;-60
2023/01/05 02:23:35;;;;;;;60.15;29.50;;;;;;;5.23;97.01;94053.59;4972922;28;20035;-60
2023/01/05 02:26:22;;;;;;;58.13;29.40;;;;;;;5.31;97.05;94052.56;4965265;28;20086;-61
2023/01/05 02:28:53;;;;;;;54.92;27.95;;;;;;;5.36;96.65;94042.88;4960452;28;20035;-61
2023/01/05 02:31:26;;;;;;;53.63;26.73;;;;;;;5.28;96.82;94048.09;4963304;28;20470;-61
2023/01/05 02:34:06;;;;;;;56.90;28.10;;;;;;;5.34;96.93;94037.16;4969034;28;20057;-61
2023/01/05 02:36:52;;;;;;;60.20;30.23;;;;;;;5.16;97.07;94043.13;4965883;28;20042;-61
2023/01/05 02:39:32;;;;;;;61.60;28.10;;;;;;;5.21;97.54;94037.66;4959147;28;20038;-61
2023/01/05 02:42:02;;;;;;;55.47;29.17;;;;;;;5.15;97.29;94020.50;4955864;28;20727;-61
2023/01/05 02:44:29;;;;;;;63.20;30.90;;;;;;;5.01;97.83;94032.44;4975896;28;20031;-62
2023/01/05 02:47:24;;;;;;;62.85;31.60;;;;;;;5.10;98.37;94034.94;4969654;28;20086;-62
2023/01/05 02:50:03;;;;;;;60.15;27.60;;;;;;;5.22;97.76;94038.41;4951873;28;20038;-61
2023/01/05 02:52:53;;;;;;;56.30;29.90;;;;;;;5.23;98.02;94031.69;4959965;28;20034;-62
2023/01/05 02:55:22;;;;;;;65.00;29.00;;;;;;;5.44;96.73;94038.34;4971929;28;20480;-61
2023/01/05 02:58:05;;;;;;;65.70;31.10;;;;;;;5.36;96.27;94038.16;4975165;28;20022;-61
2023/01/05 03:01:04;;;;;;;57.70;27.98;;;;;;;5.33;96.17;94030.91;4964362;28;20163;-61
2023/01/05 03:03:33;;;;;;;60.45;29.48;;;;;;;5.38;96.23;94023.94;4952053;28;20070;-61
2023/01/05 03:06:02;;;;;;;60.35;29.15;;;;;;;5.36;95.77;94013.50;4969113;28;20038;-61
2023/01/05 03:08:30;;;;;;;56.33;30.23;;;;;;;5.22;96.01;94013.75;4967111;28;20415;-61
2023/01/05 03:14:20;;;;;;;61.20;30.60;;;;;;;5.38;96.68;94010.25;4962506;28;20042;-60
2023/01/05 03:16:47;;;;;;;59.88;32.05;;;;;;;5.44;95.84;94005.50;4972758;28;20031;-61
2023/01/05 03:35:58;;;;;;;81.18;35.13;;;;;;;5.21;97.08;93982.91;4967098;28;20037;-61
2023/01/05 03:38:38;;;;;;;68.80;32.42;;;;;;;5.13;97.86;93984.66;4966359;28;20491;-61
2023/01/05 03:41:04;;;;;;;73.47;35.90;;;;;;;5.23;97.84;93979.69;4958248;28;20027;-61
2023/01/05 03:43:34;;;;;;;70.38;35.13;;;;;;;5.20;97.14;93975.19;4979283;28;20097;-61
2023/01/05 03:46:05;;;;;;;75.20;34.58;;;;;;;5.19;97.26;93973.72;4966321;28;20030;-61
2023/01/05 03:48:31;;;;;;;73.13;36.10;;;;;;;5.01;97.91;93985.19;4964318;28;20511;-61
2023/01/05 03:50:56;;;;;;;76.63;35.33;;;;;;;5.06;98.82;93984.44;4957382;28;20062;-61
2023/01/05 03:53:22;;;;;;;76.40;33.15;;;;;;;5.17;97.61;93978.94;4954822;28;20019;-61
2023/01/05 03:55:47;;;;;;;76.18;35.35;;;;;;;5.00;97.95;93973.47;4961030;28;20031;-61
2023/01/05 03:58:13;;;;;;;68.65;35.20;;;;;;;4.83;99.76;93978.22;4957240;28;20034;-61
2023/01/05 04:00:38;;;;;;;73.93;34.47;;;;;;;5.06;99.54;93982.44;4961583;28;20031;-61
2023/01/05 04:03:04;;;;;;;73.63;34.88;;;;;;;5.03;98.83;93975.22;4957235;28;20042;-61
2023/01/05 04:05:29;;;;;;;73.68;32.58;;;;;;;5.15;98.70;93973.22;4955842;28;20034;-62
2023/01/05 04:07:54;;;;;;;69.65;34.35;;;;;;;5.21;97.74;93963.00;4960052;28;20055;-62
2023/01/05 04:10:20;;;;;;;78.13;36.05;;;;;;;5.03;97.88;93972.50;4980840;28;20672;-61
2023/01/05 04:12:48;;;;;;;77.10;33.92;;;;;;;5.03;99.08;93977.22;4968615;28;20438;-61
2023/01/05 04:15:13;;;;;;;67.63;30.90;;;;;;;5.03;98.70;93969.75;4959822;28;20026;-62
2023/01/05 04:17:39;;;;;;;59.35;30.48;;;;;;;5.21;98.07;93968.47;4958950;28;20024;-61
2023/01/05 04:20:04;;;;;;;64.38;30.10;;;;;;;5.29;96.97;93964.72;4969783;28;20507;-62
2023/01/05 04:22:31;;;;;;;64.97;29.60;;;;;;;5.07;97.76;93962.03;4961057;28;20085;-62
2023/01/05 04:24:57;;;;;;;66.93;30.85;;;;;;;5.15;97.55;93956.81;4964283;28;20034;-62
2023/01/05 04:27:22;;;;;;;62.88;29.42;;;;;;;5.21;97.80;93957.53;4971092;28;20133;-61
2023/01/05 04:29:48;;;;;;;63.58;28.42;;;;;;;5.25;97.33;93950.56;4970899;28;20046;-62
2023/01/05 04:32:13;;;;;;;56.70;27.17;;;;;;;5.32;96.96;93952.03;4965590;28;20046;-61
2023/01/05 04:34:39;;;;;;;65.28;32.72;;;;;;;5.19;97.46;93954.56;4957368;28;20031;-62
2023/01/05 04:37:04;;;;;;;82.47;41.83;;;;;;;5.29;97.08;93944.81;4964184;28;20042;-61
2023/01/05 04:39:29;;;;;;;96.63;46.60;;;;;;;5.36;96.31;93950.53;4965997;28;20034;-62
2023/01/05 04:41:55;;;;;;;91.57;42.28;;;;;;;5.25;96.57;93945.09;4955557;28;20406;-61
2023/01/05 04:44:20;;;;;;;94.03;42.08;;;;;;;5.21;97.15;93949.31;4960497;28;20050;-61
2023/01/05 04:46:46;;;;;;;138.02;63.80;;;;;;;5.31;96.94;93939.56;4967704;28;20061;-61
2023/01/05 04:49:11;;;;;;;98.18;51.15;;;;;;;5.41;96.29;93938.06;4962180;28;20034;-61
2023/01/05 04:51:37;;;;;;;89.60;44.28;;;;;;;5.45;96.14;93940.53;4957782;28;20030;-62
2023/01/05 04:54:03;;;;;;;106.45;42.05;;;;;;;5.33;96.06;93951.53;4966083;28;20086;-62
2023/01/05 04:56:28;;;;;;;116.95;53.63;;;;;;;5.16;97.20;93959.03;4966022;28;20089;-62
2023/01/05 04:58:54;;;;;;;104.55;47.50;;;;;;;5.30;97.38;93958.00;4956269;28;20028;-62
2023/01/05 05:01:19;;;;;;;86.93;40.22;;;;;;;5.43;96.33;93957.47;4963334;28;20050;-62
2023/01/05 05:03:45;;;;;;;92.07;40.55;;;;;;;5.45;95.92;93949.50;4956725;28;20081;-62
2023/01/05 05:06:10;;;;;;;86.10;37.45;;;;;;;5.39;96.13;93954.97;4962675;28;20051;-62
2023/01/05 05:08:36;;;;;;;97.93;40.33;;;;;;;5.32;96.85;93950.03;4961524;28;20533;-62
2023/01/05 05:11:01;;;;;;;99.05;37.83;;;;;;;5.46;96.29;93953.72;4967306;28;20062;-61
2023/01/05 05:13:27;;;;;;;92.70;37.17;;;;;;;5.27;97.01;93956.28;4965906;28;20104;-61
2023/01/05 05:15:52;;;;;;;101.25;39.22;;;;;;;5.28;97.10;93962.50;4962875;28;20113;-61
2023/01/05 05:18:18;;;;;;;117.03;37.95;;;;;;;5.20;97.79;93961.50;4963963;28;20026;-61
2023/01/05 05:20:44;;;;;;;118.65;43.40;;;;;;;5.09;98.37;93964.28;4963428;28;20035;-62
2023/01/05 05:23:10;;;;;;;91.28;37.95;;;;;;;5.23;98.16;93960.50;4962482;28;20431;-61
2023/01/05 05:25:35;;;;;;;95.00;39.28;;;;;;;5.24;97.90;93965.47;4967952;28;20118;-61
2023/01/05 05:28:01;;;;;;;102.85;39.70;;;;;;;5.27;97.71;93961.00;4962903;28;20716;-61
2023/01/05 05:30:26;;;;;;;98.20;39.53;;;;;;;5.22;97.23;93964.47;4968135;28;20058;-61
2023/01/05 05:32:52;;;;;;;88.15;42.13;;;;;;;5.26;97.34;93957.50;4964502;28;20061;-61
2023/01/05 05:35:17;;;;;;;91.50;38.60;;;;;;;5.35;96.60;93953.75;4968068;28;20031;-60
2023/01/05 05:37:42;;;;;;;70.60;35.42;;;;;;;5.03;97.62;93952.59;4963393;28;20029;-60
2023/01/05 05:40:09;;;;;;;95.22;38.80;;;;;;;4.88;99.17;93968.53;4968506;28;20030;-62
2023/01/05 05:42:34;;;;;;;88.57;36.60;;;;;;;4.94;99.05;93964.53;4965711;28;20093;-62
2023/01/05 05:45:00;;;;;;;90.53;36.55;;;;;;;4.91;99.63;93962.06;4969217;28;20458;-61
2023/01/05 05:47:25;;;;;;;84.43;38.03;;;;;;;4.84;99.24;93952.38;4966895;28;20039;-61
2023/01/05 05:49:50;;;;;;;87.20;36.28;;;;;;;4.79;99.65;93960.56;4965316;28;20035;-61
2023/01/05 05:52:16;;;;;;;84.72;37.00;;;;;;;4.75;100.00;93946.41;4965258;28;20033;-61
2023/01/05 05:54:41;;;;;;;96.80;44.60;;;;;;;4.84;100.00;93946.91;4968293;28;20015;-62
2023/01/05 05:57:07;;;;;;;73.93;34.55;;;;;;;4.86;99.82;93946.41;4966585;28;20423;-61
2023/01/05 05:59:32;;;;;;;69.90;32.78;;;;;;;4.80;99.69;93935.47;4965122;28;20078;-61
2023/01/05 06:01:57;;;;;;;69.30;32.00;;;;;;;4.71;100.00;93940.44;4966283;28;20084;-61
2023/01/05 06:04:23;;;;;;;74.30;35.42;;;;;;;4.85;100.00;93929.22;4966888;28;20034;-61
2023/01/05 06:06:48;;;;;;;73.55;33.80;;;;;;;4.73;100.00;93929.75;4963857;28;20058;-61
2023/01/05 06:09:14;;;;;;;67.93;32.90;;;;;;;4.61;100.00;93927.03;4966806;28;20041;-62
2023/01/05 06:11:39;;;;;;;75.35;33.65;;;;;;;4.56;100.00;93921.56;4964106;28;20093;-62
2023/01/05 06:14:06;;;;;;;56.90;28.70;;;;;;;4.63;100.00;93924.53;4959630;28;20035;-61
2023/01/05 06:16:32;;;;;;;65.80;30.55;;;;;;;4.79;100.00;93922.28;4962688;28;20038;-62
2023/01/05 06:18:57;;;;;;;56.92;27.83;;;;;;;4.72;100.00;93923.53;4959732;28;20468;-62
2023/01/05 06:21:22;;;;;;;68.13;30.52;;;;;;;4.79;100.00;93919.53;4966456;28;20042;-62
2023/01/05 06:23:48;;;;;;;58.17;30.73;;;;;;;4.76;100.00;93917.81;4967166;28;20459;-61
2023/01/05 06:26:13;;;;;;;62.78;32.50;;;;;;;4.67;100.00;93905.16;4964686;28;20027;-62
2023/01/05 06:28:39;;;;;;;56.28;30.60;;;;;;;4.83;100.00;93906.38;4963328;28;20031;-62
2023/01/05 06:31:05;;;;;;;76.95;36.97;;;;;;;4.80;100.00;93915.56;4970097;28;20082;-62
2023/01/05 06:33:30;;;;;;;57.42;29.30;;;;;;;4.79;99.70;93909.34;4963647;28;20038;-62
2023/01/05 06:35:57;;;;;;;69.25;34.70;;;;;;;4.75;100.00;93908.88;4967926;28;20489;-62
2023/01/05 06:38:23;;;;;;;63.50;32.97;;;;;;;4.91;100.00;93908.09;4963455;28;20026;-62
2023/01/05 06:40:49;;;;;;;50.70;28.13;;;;;;;4.96;99.01;93909.34;4979776;28;20034;-62
2023/01/05 06:43:14;;;;;;;55.03;28.33;;;;;;;4.90;99.12;93903.88;4966158;28;20118;-62
2023/01/05 06:45:40;;;;;;;48.80;27.70;;;;;;;5.05;98.86;93906.31;4965323;28;20030;-63
2023/01/05 06:48:05;;;;;;;62.10;31.25;;;;;;;5.20;97.70;93904.78;4964218;28;20026;-62
2023/01/05 06:50:31;;;;;;;71.28;34.55;;;;;;;5.29;97.14;93909.22;4964858;28;20104;-62
2023/01/05 06:52:57;;;;;;;55.75;27.38;;;;;;;5.34;96.44;93913.94;4961728;28;20057;-62
2023/01/05 06:55:23;;;;;;;41.35;22.90;;;;;;;5.32;95.68;93916.44;4967772;28;20506;-62
2023/01/05 06:57:48;;;;;;;41.20;23.73;;;;;;;5.35;96.01;93920.88;4962150;28;20023;-62
2023/01/05 07:00:14;;;;;;;39.58;23.83;;;;;;;5.41;95.38;93905.22;4967802;28;20579;-62
2023/01/05 07:02:39;;;;;;;48.92;28.73;;;;;;;5.51;94.76;93903.66;4958016;28;20034;-62
2023/01/05 07:05:06;;;;;;;46.17;25.90;;;;;;;5.43;95.09;93897.22;4967023;28;20026;-62
2023/01/05 07:07:31;;;;;;;45.17;23.42;;;;;;;5.59;94.76;93909.38;4962893;28;20046;-62
2023/01/05 07:09:57;;;;;;;41.45;23.58;;;;;;;5.72;93.75;93907.53;4964134;28;20038;-62
2023/01/05 07:12:22;;;;;;;37.58;22.58;;;;;;;5.70;93.50;93904.56;4965502;28;20117;-62
2023/01/05 07:14:48;;;;;;;39.20;23.58;;;;;;;5.75;92.72;93909.28;4956345;28;20507;-62
2023/01/05 07:17:13;;;;;;;51.67;30.77;;;;;;;5.71;92.38;93900.59;4961544;28;20073;-62
2023/01/05 07:19:39;;;;;;;43.50;25.45;;;;;;;5.85;91.77;93910.47;4961753;28;20033;-62
2023/01/05 07:22:04;;;;;;;42.33;23.90;;;;;;;5.79;91.08;93909.00;4962136;28;20038;-62
2023/01/05 07:24:30;;;;;;;44.10;25.33;;;;;;;5.61;91.60;93904.13;4966556;28;20030;-62
2023/01/05 07:26:57;;;;;;;53.42;29.17;;;;;;;5.66;92.44;93903.34;4966788;28;20030;-62
2023/01/05 07:29:23;;;;;;;48.70;25.10;;;;;;;5.80;92.35;93900.28;4966462;28;20114;-60
2023/01/05 07:31:51;;;;;;;39.20;23.63;;;;;;;5.86;91.50;93901.03;4964260;28;20114;-62
2023/01/05 07:34:25;;;;;;;36.78;21.63;;;;;;;5.80;90.66;93897.56;4966735;28;20041;-61
2023/01/05 07:36:51;;;;;;;31.95;19.35;;;;;;;5.66;92.19;93884.91;4966064;28;20036;-61
2023/01/05 07:39:16;;;;;;;53.35;33.03;;;;;;;5.69;92.37;93891.38;4956116;28;20035;-61
2023/01/05 07:41:43;;;;;;;37.42;23.10;;;;;;;5.79;91.96;93892.56;4964038;28;20030;-62
2023/01/05 07:44:08;;;;;;;59.33;32.35;;;;;;;6.06;91.16;93886.94;4957827;28;20038;-61
2023/01/05 07:46:34;;;;;;;35.30;20.80;;;;;;;6.00;89.82;93880.75;4961038;28;20060;-61
2023/01/05 07:49:00;;;;;;;27.55;16.42;;;;;;;5.86;89.57;93867.41;4960275;28;20820;-61
2023/01/05 07:51:25;;;;;;;28.48;17.20;;;;;;;5.86;90.27;93881.09;4963911;28;20510;-61
2023/01/05 07:53:52;;;;;;;29.65;17.73;;;;;;;6.01;88.12;93862.31;4954090;28;20046;-61
2023/01/05 07:56:18;;;;;;;28.63;17.50;;;;;;;6.08;87.98;93859.78;4965453;28;20566;-62
2023/01/05 07:58:43;;;;;;;40.95;17.73;;;;;;;6.19;87.88;93867.16;4926979;28;20105;-62
2023/01/05 08:01:11;;;;;;;22.92;15.02;;;;;;;6.22;88.59;93863.38;4971877;28;20034;-62
2023/01/05 08:03:36;;;;;;;28.02;17.77;;;;;;;6.28;87.82;93855.13;4962760;28;20041;-61
2023/01/05 08:06:04;;;;;;;40.65;25.52;;;;;;;6.39;87.46;93858.50;4962872;28;20026;-61
2023/01/05 08:08:29;;;;;;;33.20;19.17;;;;;;;6.43;86.49;93866.47;4960391;28;20082;-61
2023/01/05 08:10:54;;;;;;;44.85;23.75;;;;;;;6.47;86.56;93870.44;4963520;28;20046;-61
2023/01/05 08:16:05;;;;;;;32.72;20.00;;;;;;;6.47;85.87;93839.50;4965907;28;20128;-62
2023/01/05 08:18:30;;;;;;;28.42;17.17;;;;;;;6.66;84.62;93863.03;4966353;28;20054;-62
2023/01/05 08:20:58;;;;;;;35.58;20.38;;;;;;;6.77;84.21;93853.94;4959991;28;20467;-62
2023/01/05 08:23:25;;;;;;;21.70;13.85;;;;;;;6.41;83.30;93850.50;4963917;28;20093;-62
2023/01/05 08:25:50;;;;;;;27.02;16.13;;;;;;;6.69;84.63;93855.75;4964973;28;20023;-62
2023/01/05 08:28:16;;;;;;;27.77;15.73;;;;;;;6.83;82.47;93849.13;4962380;28;20404;-61
2023/01/05 08:30:42;;;;;;;27.55;16.67;;;;;;;6.84;82.38;93831.41;4973186;28;20371;-62
2023/01/05 08:33:07;;;;;;;29.02;17.13;;;;;;;7.15;81.70;93843.78;4953334;28;20835;-62
2023/01/05 08:35:33;;;;;;;23.38;14.20;;;;;;;7.13;80.78;93847.03;4974975;28;20034;-61
2023/01/05 08:37:58;;;;;;;25.15;14.75;;;;;;;7.04;80.75;93830.91;4971097;28;20088;-61
2023/01/05 08:40:24;;;;;;;27.50;15.68;;;;;;;7.26;79.99;93840.91;4972728;28;20787;-62
2023/01/05 08:42:50;;;;;;;23.70;14.52;;;;;;;7.46;78.43;93838.41;4970593;28;20037;-61
2023/01/05 08:45:16;;;;;;;20.83;12.85;;;;;;;7.22;78.15;93840.44;4961848;28;20528;-61
2023/01/05 08:47:41;;;;;;;31.88;15.25;;;;;;;7.26;79.04;93833.41;4964009;28;20034;-61
2023/01/05 08:50:08;;;;;;;27.75;16.85;;;;;;;7.63;78.25;93832.69;4966830;28;20034;-61
2023/01/05 08:52:34;;;;;;;34.92;16.23;;;;;;;7.93;77.35;93818.75;4968644;28;20027;-61
2023/01/05 08:55:00;;;;;;;33.70;21.70;;;;;;;9.05;75.48;93832.91;4966846;28;20494;-61
2023/01/05 08:57:25;;;;;;;21.35;13.98;;;;;;;10.41;67.53;93818.72;4997620;28;20097;-61
2023/01/05 08:59:51;;;;;;;18.80;12.50;;;;;;;11.88;61.00;93821.28;4969661;28;20411;-61
2023/01/05 09:02:16;;;;;;;32.33;21.15;;;;;;;12.34;59.74;93819.38;4973525;28;20042;-61
2023/01/05 09:04:42;;;;;;;46.85;32.13;;;;;;;13.55;56.21;93814.53;4972980;28;20034;-62
2023/01/05 09:07:07;;;;;;;19.88;14.30;;;;;;;14.95;51.80;93817.66;4976300;28;20469;-62
2023/01/05 09:09:33;;;;;;;18.10;12.93;;;;;;;15.80;48.80;93805.91;4974122;28;20644;-62
2023/01/05 09:11:58;;;;;;;19.20;13.05;;;;;;;14.44;51.54;93798.75;4975296;28;20058;-62
2023/01/05 09:14:24;;;;;;;17.38;13.15;;;;;;;13.84;52.70;93792.78;4977796;28;20041;-62
2023/01/05 09:16:49;;;;;;;18.70;12.85;;;;;;;12.94;54.80;93797.25;4971300;28;20043;-61
2023/01/05 09:19:14;;;;;;;17.88;13.35;;;;;;;11.73;57.14;93788.78;4968825;28;20034;-62
2023/01/05 09:21:40;;;;;;;18.13;11.85;;;;;;;12.13;57.14;93792.59;4967379;28;20084;-61
2023/01/05 09:24:06;;;;;;;19.27;13.32;;;;;;;12.46;57.42;93785.25;4962152;28;20479;-59
2023/01/05 09:26:32;;;;;;;20.42;14.77;;;;;;;12.19;57.67;93786.88;4962686;28;20164;-61
2023/01/05 09:28:58;;;;;;;20.23;14.73;;;;;;;12.21;57.27;93776.00;4966270;28;20467;-61
2023/01/05 09:31:24;;;;;;;22.30;14.65;;;;;;;11.88;58.53;93774.25;4967081;28;20023;-60
2023/01/05 09:33:50;;;;;;;20.88;14.68;;;;;;;11.70;59.36;93770.50;4966879;28;20092;-60
2023/01/05 09:36:17;;;;;;;24.27;15.45;;;;;;;11.67;58.55;93763.34;4968442;28;20030;-61
2023/01/05 09:38:50;;;;;;;19.98;13.95;;;;;;;12.69;56.93;93749.25;4966147;28;20671;-61
2023/01/05 09:41:18;;;;;;;20.98;13.40;;;;;;;13.96;54.53;93746.63;4968990;28;20049;-61
2023/01/05 09:43:45;;;;;;;14.82;11.38;;;;;;;14.47;50.85;93738.53;4968836;28;20427;-61
2023/01/05 09:46:15;;;;;;;19.92;13.35;;;;;;;13.24;52.29;93730.69;4969175;28;20035;-61
2023/01/05 09:48:44;;;;;;;21.55;13.95;;;;;;;11.72;57.65;93726.44;4966642;28;20030;-61
2023/01/05 09:51:10;;;;;;;22.83;15.10;;;;;;;11.35;59.28;93718.75;4968881;28;20026;-60
2023/01/05 09:53:36;;;;;;;15.25;12.13;;;;;;;11.39;58.13;93708.81;4970744;28;20527;-61
2023/01/05 09:56:01;;;;;;;29.52;19.27;;;;;;;11.58;60.44;93705.00;4966892;28;20165;-61
2023/01/05 09:58:31;;;;;;;24.13;15.82;;;;;;;12.02;57.48;93707.13;5001451;28;20034;-61
2023/01/05 10:01:08;;;;;;;17.83;13.80;;;;;;;11.58;58.67;93702.97;4965555;28;20038;-61
2023/01/05 10:03:38;;;;;;;20.08;13.40;;;;;;;12.18;57.49;93697.56;4997676;28;20037;-61
2023/01/05 10:06:06;;;;;;;21.33;14.00;;;;;;;12.08;57.89;93687.59;4967073;28;20061;-61
2023/01/05 10:08:39;;;;;;;21.90;15.52;;;;;;;12.37;57.80;93690.91;4967267;28;20039;-61
2023/01/05 10:14:04;;;;;;;18.20;12.93;;;;;;;12.08;56.62;93685.53;4967060;28;20781;-61
2023/01/05 10:16:31;;;;;;;20.08;14.10;;;;;;;12.31;57.42;93682.78;4971229;28;20029;-61
2023/01/05 10:18:56;;;;;;;19.55;13.68;;;;;;;12.81;55.72;93672.75;4970545;28;20062;-61
2023/01/05 10:22:00;;;;;;;19.05;13.40;;;;;;;13.54;53.19;93671.56;4983494;28;20034;-61
2023/01/05 10:24:50;;;;;;;19.17;12.20;;;;;;;14.82;50.78;93667.84;4975634;28;20035;-62
2023/01/05 10:27:41;;;;;;;22.75;15.73;;;;;;;15.20;50.37;93656.31;4965396;28;20027;-61
2023/01/05 10:30:26;;;;;;;16.50;12.43;;;;;;;15.32;48.53;93651.69;4982752;28;20073;-62
2023/01/05 10:33:00;;;;;;;18.45;13.38;;;;;;;16.25;47.57;93647.81;4965818;28;20059;-61
2023/01/05 10:35:36;;;;;;;30.90;20.02;;;;;;;16.14;46.34;93648.38;4970428;28;20027;-61
2023/01/05 10:39:01;;;;;;;16.15;10.93;;;;;;;16.65;45.97;93639.75;4996133;28;20081;-61
2023/01/05 10:41:35;;;;;;;15.90;10.30;;;;;;;16.22;44.47;93632.28;4982750;28;20149;-61
2023/01/05 10:44:05;;;;;;;15.25;11.60;;;;;;;15.74;45.59;93634.88;4967079;28;20054;-60
2023/01/05 10:46:30;;;;;;;20.52;12.13;;;;;;;16.25;45.81;93629.06;4968259;28;20053;-60
2023/01/05 10:48:56;;;;;;;19.45;14.27;;;;;;;16.75;45.44;93634.19;4966804;28;20019;-61
2023/01/05 10:51:22;;;;;;;12.00;9.60;;;;;;;15.67;45.24;93619.72;4965900;28;20034;-61
2023/01/05 10:53:48;;;;;;;16.10;11.27;;;;;;;16.35;45.93;93618.66;5003020;28;20419;-61
2023/01/05 10:56:30;;;;;;;29.30;18.42;;;;;;;17.87;42.83;93617.22;4965364;28;20542;-61
2023/01/05 10:59:14;;;;;;;14.70;9.90;;;;;;;18.25;40.95;93612.81;4966113;28;20033;-61
2023/01/05 11:01:44;;;;;;;14.10;10.75;;;;;;;18.69;40.98;93608.19;4965741;28;20026;-61
2023/01/05 11:04:16;;;;;;;13.30;10.70;;;;;;;18.32;40.67;93621.00;4969317;28;20031;-61
2023/01/05 11:06:41;;;;;;;28.88;17.90;;;;;;;19.09;39.51;93615.72;4966079;28;20042;-61
2023/01/05 11:09:16;;;;;;;9.63;7.43;;;;;;;19.61;37.00;93602.31;4963758;28;20408;-61
2023/01/05 11:11:42;;;;;;;11.75;7.72;;;;;;;20.07;35.05;93590.47;4961128;28;20100;-61
2023/01/05 11:14:15;;;;;;;9.50;8.00;;;;;;;19.14;36.22;93599.91;4963425;28;20026;-62
2023/01/05 11:16:49;;;;;;;13.35;9.30;;;;;;;19.00;36.86;93593.38;4963006;28;20589;-60
2023/01/05 11:19:25;;;;;;;16.55;10.98;;;;;;;18.86;36.71;93593.94;4967752;28;20534;-61
2023/01/05 11:21:50;;;;;;;9.95;7.05;;;;;;;18.89;36.74;93601.13;4965694;28;20113;-61
2023/01/05 11:24:35;;;;;;;6.82;6.05;;;;;;;18.57;36.53;93592.66;4963759;28;20118;-61
2023/01/05 11:27:05;;;;;;;9.63;7.15;;;;;;;19.00;36.06;93590.59;4960115;28;20668;-60
2023/01/05 11:29:30;;;;;;;10.98;7.85;;;;;;;18.30;37.23;93578.94;4964152;28;20030;-60
2023/01/05 11:32:00;;;;;;;10.43;5.80;;;;;;;18.45;36.66;93578.59;4957449;28;20058;-61
2023/01/05 11:34:34;;;;;;;12.43;7.47;;;;;;;17.83;37.58;93577.84;4999846;28;20030;-61
2023/01/05 11:37:09;;;;;;;9.32;6.55;;;;;;;17.53;37.72;93572.19;4963872;28;20031;-61
2023/01/05 11:39:46;;;;;;;6.90;6.15;;;;;;;16.97;39.96;93575.22;4960328;28;20030;-61
2023/01/05 11:42:13;;;;;;;13.43;7.78;;;;;;;16.53;39.58;93569.91;4962905;28;20061;-61
2023/01/05 11:44:59;;;;;;;9.85;7.05;;;;;;;15.82;41.58;93574.97;4960667;28;20035;-61
2023/01/05 11:47:36;;;;;;;12.48;9.27;;;;;;;15.63;42.67;93565.81;4959199;28;20043;-61
2023/01/05 11:50:04;;;;;;;9.32;7.20;;;;;;;15.00;43.70;93560.88;4975473;28;20423;-61
2023/01/05 11:52:37;;;;;;;12.32;9.15;;;;;;;14.72;43.75;93538.44;4964634;28;20054;-61
2023/01/05 11:55:24;;;;;;;8.95;7.20;;;;;;;14.20;45.38;93568.22;4960800;28;20039;-61
2023/01/05 11:57:51;;;;;;;9.02;6.47;;;;;;;14.74;44.29;93558.78;4964233;28;20046;-61
2023/01/05 12:00:25;;;;;;;13.88;7.22;;;;;;;15.33;43.31;93564.16;4958416;28;20100;-61
2023/01/05 12:02:53;;;;;;;7.68;6.20;;;;;;;15.87;41.83;93553.75;4968177;28;20027;-62
2023/01/05 12:05:44;;;;;;;7.55;5.85;;;;;;;15.88;41.12;93555.19;4958823;28;20035;-61
2023/01/05 12:08:13;;;;;;;9.38;5.47;;;;;;;15.24;42.33;93550.94;4964854;28;20053;-61